Misión y Visión

La misión es proporcionar información fiable a la navegación aérea, contribuyendo a la seguridad, regularidad y eficiencia de la Navegación Aérea Internacional

La visión es contribuir sustancialmente al desarrollo de conocimientos y a la utilización de la meteorología aeronáutica a nivel nacional e internacional, mediante la innovación y la coparticipación con sectores sociales y productivos de la sociedad.

 
  Inicio
  Metar
  Taf
  Wintemp
  SIGMET
  Avisos
  Pronósticos
  Carpeta Meteorologica
  Imágenes Satelitales
  Climatología Aeronáutica
   
  ¿Quienes Somos?
  Contacto
  Eventos
Taf

 

IMÁGENES DEL AEROPUERTO
(EN CONSTRUCCION)

 

PRONOSTICO DE AERÓDROMO
TAF / PROYECCION CLIMATICA
MES DE JULIO

 

AEROPUERTO ENRIQUE MALEK:

TAF MPSM 231000Z 2312/2418 15006KT 9000 RA SCT018 SCT080 TEMPO 2318/2322 00000KT 9999 NSW SCT016 SCT090 BECMG 2324/2404 18006KT 9999 NSW SCT020 SCT070


TAF:

TAF MPDA 231000Z 2312/2324 18006KT 9999 SCT018 BECMG 2320/2324 20006KT 8000 RA SCT016 BKN070

 

AEROPUERTO PANAMA PACIFICO:

hola



TAF:



AEROPUERTO MARCOS A. GELABERT:

TAF MPMG 231000Z 2312/2324 17006KT 9000 RA SCT018 SCT080 BECMG 2320/2324 20006KT 9999 NSW SCT016 SCT080



TAF:



AEROPUERTO INTL. DE TOCUMEN:

TAF MPPA 231000Z 2312/2418 15006KT 9000 RA SCT016 BKN080 TEMPO 2318/2322 00000KT 9999 NSW SCT016 SCT090 BECMG 2324/2404 18006KT 9999 SCT018 SCT080



TAF:

TAF MPTO 231000Z 2312/2418 14006KT 9000 RA SCT015 BKN080 TEMPO 2318/2322 00000KT 9999 NSW SCT016 SCT090 BECMG 2322/2402 18006KT